sensor_id;sensor_type;location;lat;lon;timestamp;pressure;altitude;pressure_sealevel;temperature;humidity
53619;BME280;39505;53.040;18.488;2023-03-03T00:00:00;101801.56;;;-0.60;100.00
53619;BME280;39505;53.040;18.488;2023-03-03T00:00:15;101809.47;;;-0.60;100.00
53619;BME280;39505;53.040;18.488;2023-03-03T00:00:48;101810.41;;;-0.63;100.00
53619;BME280;39505;53.040;18.488;2023-03-03T00:01:04;101804.25;;;-0.63;100.00
53619;BME280;39505;53.040;18.488;2023-03-03T00:01:18;101806.88;;;-0.63;100.00
53619;BME280;39505;53.040;18.488;2023-03-03T00:01:33;101806.00;;;-0.62;100.00
53619;BME280;39505;53.040;18.488;2023-03-03T00:01:45;101807.72;;;-0.61;100.00
53619;BME280;39505;53.040;18.488;2023-03-03T00:01:58;101804.19;;;-0.60;100.00
53619;BME280;39505;53.040;18.488;2023-03-03T00:02:11;101802.41;;;-0.60;100.00
53619;BME280;39505;53.040;18.488;2023-03-03T00:02:24;101798.97;;;-0.63;100.00
53619;BME280;39505;53.040;18.488;2023-03-03T00:02:37;101811.19;;;-0.59;100.00
53619;BME280;39505;53.040;18.488;2023-03-03T00:02:49;101800.63;;;-0.59;100.00
53619;BME280;39505;53.040;18.488;2023-03-03T00:03:05;101797.16;;;-0.60;100.00
53619;BME280;39505;53.040;18.488;2023-03-03T00:03:21;101803.28;;;-0.59;100.00
53619;BME280;39505;53.040;18.488;2023-03-03T00:03:36;101798.91;;;-0.60;100.00
53619;BME280;39505;53.040;18.488;2023-03-03T00:03:48;101794.53;;;-0.61;100.00
53619;BME280;39505;53.040;18.488;2023-03-03T00:04:01;101798.91;;;-0.60;100.00
53619;BME280;39505;53.040;18.488;2023-03-03T00:04:14;101792.78;;;-0.61;100.00
53619;BME280;39505;53.040;18.488;2023-03-03T00:04:27;101798.91;;;-0.60;100.00
53619;BME280;39505;53.040;18.488;2023-03-03T00:04:39;101799.75;;;-0.58;100.00
53619;BME280;39505;53.040;18.488;2023-03-03T00:04:53;101808.50;;;-0.58;100.00
53619;BME280;39505;53.040;18.488;2023-03-03T00:05:07;101801.53;;;-0.59;100.00
53619;BME280;39505;53.040;18.488;2023-03-03T00:05:21;101796.25;;;-0.59;100.00
53619;BME280;39505;53.040;18.488;2023-03-03T00:05:35;101798.91;;;-0.59;100.00
53619;BME280;39505;53.040;18.488;2023-03-03T00:05:48;101794.50;;;-0.58;100.00
53619;BME280;39505;53.040;18.488;2023-03-03T00:06:02;101791.00;;;-0.59;100.00
53619;BME280;39505;53.040;18.488;2023-03-03T00:06:15;101795.38;;;-0.59;100.00
53619;BME280;39505;53.040;18.488;2023-03-03T00:06:29;101792.78;;;-0.61;100.00
53619;BME280;39505;53.040;18.488;2023-03-03T00:06:43;101794.50;;;-0.60;100.00
53619;BME280;39505;53.040;18.488;2023-03-03T00:06:56;101783.97;;;-0.60;100.00
53619;BME280;39505;53.040;18.488;2023-03-03T00:07:09;101793.66;;;-0.60;100.00
53619;BME280;39505;53.040;18.488;2023-03-03T00:07:22;101788.38;;;-0.60;100.00
53619;BME280;39505;53.040;18.488;2023-03-03T00:07:35;101791.03;;;-0.60;100.00
53619;BME280;39505;53.040;18.488;2023-03-03T00:07:49;101790.09;;;-0.59;100.00
53619;BME280;39505;53.040;18.488;2023-03-03T00:08:02;101787.47;;;-0.59;100.00
53619;BME280;39505;53.040;18.488;2023-03-03T00:08:15;101791.03;;;-0.60;100.00
53619;BME280;39505;53.040;18.488;2023-03-03T00:08:28;101790.09;;;-0.59;100.00
53619;BME280;39505;53.040;18.488;2023-03-03T00:08:42;101782.19;;;-0.59;100.00
53619;BME280;39505;53.040;18.488;2023-03-03T00:08:55;101783.13;;;-0.60;100.00
53619;BME280;39505;53.040;18.488;2023-03-03T00:09:09;101783.97;;;-0.60;100.00
53619;BME280;39505;53.040;18.488;2023-03-03T00:09:22;101786.59;;;-0.58;100.00
53619;BME280;39505;53.040;18.488;2023-03-03T00:09:34;101778.69;;;-0.58;100.00
53619;BME280;39505;53.040;18.488;2023-03-03T00:09:47;101781.31;;;-0.58;100.00
53619;BME280;39505;53.040;18.488;2023-03-03T00:10:00;101779.56;;;-0.59;100.00
53619;BME280;39505;53.040;18.488;2023-03-03T00:10:13;101776.09;;;-0.61;100.00
53619;BME280;39505;53.040;18.488;2023-03-03T00:10:26;101785.75;;;-0.60;100.00
53619;BME280;39505;53.040;18.488;2023-03-03T00:10:39;101781.38;;;-0.61;100.00
53619;BME280;39505;53.040;18.488;2023-03-03T00:10:51;101780.47;;;-0.60;100.00
53619;BME280;39505;53.040;18.488;2023-03-03T00:11:07;101777.81;;;-0.59;100.00
53619;BME280;39505;53.040;18.488;2023-03-03T00:11:20;101782.25;;;-0.61;100.00
53619;BME280;39505;53.040;18.488;2023-03-03T00:11:32;101786.63;;;-0.61;100.00
53619;BME280;39505;53.040;18.488;2023-03-03T00:11:46;101784.00;;;-0.61;100.00
53619;BME280;39505;53.040;18.488;2023-03-03T00:12:16;101782.31;;;-0.64;100.00
53619;BME280;39505;53.040;18.488;2023-03-03T00:12:45;101777.97;;;-0.65;100.00
53619;BME280;39505;53.040;18.488;2023-03-03T00:12:59;101782.31;;;-0.64;100.00
53619;BME280;39505;53.040;18.488;2023-03-03T00:13:14;101772.72;;;-0.67;100.00
53619;BME280;39505;53.040;18.488;2023-03-03T00:13:27;101774.56;;;-0.70;100.00
53619;BME280;39505;53.040;18.488;2023-03-03T00:13:44;101776.28;;;-0.68;100.00
53619;BME280;39505;53.040;18.488;2023-03-03T00:13:57;101783.28;;;-0.68;100.00
53619;BME280;39505;53.040;18.488;2023-03-03T00:14:17;101785.06;;;-0.69;100.00
53619;BME280;39505;53.040;18.488;2023-03-03T00:14:33;101786.81;;;-0.68;100.00
53619;BME280;39505;53.040;18.488;2023-03-03T00:14:46;101781.53;;;-0.68;100.00
53619;BME280;39505;53.040;18.488;2023-03-03T00:14:58;101777.16;;;-0.69;100.00
53619;BME280;39505;53.040;18.488;2023-03-03T00:15:15;101782.41;;;-0.67;100.00
53619;BME280;39505;53.040;18.488;2023-03-03T00:15:29;101778.94;;;-0.69;100.00
53619;BME280;39505;53.040;18.488;2023-03-03T00:15:43;101776.28;;;-0.68;100.00
53619;BME280;39505;53.040;18.488;2023-03-03T00:16:11;101781.53;;;-0.68;100.00
53619;BME280;39505;53.040;18.488;2023-03-03T00:16:27;101773.63;;;-0.68;100.00
53619;BME280;39505;53.040;18.488;2023-03-03T00:16:41;101777.16;;;-0.69;100.00
53619;BME280;39505;53.040;18.488;2023-03-03T00:16:54;101783.28;;;-0.68;100.00
53619;BME280;39505;53.040;18.488;2023-03-03T00:17:14;101784.19;;;-0.68;100.00
53619;BME280;39505;53.040;18.488;2023-03-03T00:17:29;101773.66;;;-0.69;100.00
53619;BME280;39505;53.040;18.488;2023-03-03T00:17:44;101773.59;;;-0.66;100.00
53619;BME280;39505;53.040;18.488;2023-03-03T00:17:57;101778.00;;;-0.67;100.00
53619;BME280;39505;53.040;18.488;2023-03-03T00:18:21;101773.63;;;-0.68;100.00
53619;BME280;39505;53.040;18.488;2023-03-03T00:18:35;101772.81;;;-0.70;100.00
53619;BME280;39505;53.040;18.488;2023-03-03T00:18:48;101779.78;;;-0.69;100.00
53619;BME280;39505;53.040;18.488;2023-03-03T00:19:05;101771.03;;;-0.69;100.00
53619;BME280;39505;53.040;18.488;2023-03-03T00:19:24;101769.25;;;-0.69;100.00
53619;BME280;39505;53.040;18.488;2023-03-03T00:19:38;101766.66;;;-0.70;100.00
53619;BME280;39505;53.040;18.488;2023-03-03T00:19:52;101767.53;;;-0.70;100.00
53619;BME280;39505;53.040;18.488;2023-03-03T00:20:55;101764.94;;;-0.71;100.00
53619;BME280;39505;53.040;18.488;2023-03-03T00:21:24;101765.78;;;-0.71;100.00
53619;BME280;39505;53.040;18.488;2023-03-03T00:21:40;101771.91;;;-0.70;100.00
53619;BME280;39505;53.040;18.488;2023-03-03T00:21:55;101764.06;;;-0.72;100.00
53619;BME280;39505;53.040;18.488;2023-03-03T00:22:16;101768.44;;;-0.71;100.00
53619;BME280;39505;53.040;18.488;2023-03-03T00:22:35;101764.13;;;-0.75;100.00
53619;BME280;39505;53.040;18.488;2023-03-03T00:22:48;101765.81;;;-0.72;100.00
53619;BME280;39505;53.040;18.488;2023-03-03T00:23:19;101764.97;;;-0.73;100.00
53619;BME280;39505;53.040;18.488;2023-03-03T00:23:35;101762.31;;;-0.73;100.00
53619;BME280;39505;53.040;18.488;2023-03-03T00:23:48;101760.59;;;-0.74;100.00
53619;BME280;39505;53.040;18.488;2023-03-03T00:24:16;101761.50;;;-0.75;100.00
53619;BME280;39505;53.040;18.488;2023-03-03T00:24:36;101758.84;;;-0.75;100.00
53619;BME280;39505;53.040;18.488;2023-03-03T00:24:49;101756.22;;;-0.75;100.00
53619;BME280;39505;53.040;18.488;2023-03-03T00:25:24;101753.59;;;-0.75;100.00
53619;BME280;39505;53.040;18.488;2023-03-03T00:25:42;101754.44;;;-0.74;100.00
53619;BME280;39505;53.040;18.488;2023-03-03T00:25:56;101748.34;;;-0.75;100.00
53619;BME280;39505;53.040;18.488;2023-03-03T00:26:17;101748.34;;;-0.75;100.00
53619;BME280;39505;53.040;18.488;2023-03-03T00:26:35;101748.34;;;-0.75;100.00
53619;BME280;39505;53.040;18.488;2023-03-03T00:26:51;101750.13;;;-0.77;100.00
53619;BME280;39505;53.040;18.488;2023-03-03T00:27:16;101751.88;;;-0.76;100.00
53619;BME280;39505;53.040;18.488;2023-03-03T00:27:34;101746.63;;;-0.77;100.00
53619;BME280;39505;53.040;18.488;2023-03-03T00:27:48;101745.78;;;-0.78;100.00
53619;BME280;39505;53.040;18.488;2023-03-03T00:28:01;101748.41;;;-0.78;100.00
53619;BME280;39505;53.040;18.488;2023-03-03T00:28:23;101741.41;;;-0.79;100.00
53619;BME280;39505;53.040;18.488;2023-03-03T00:28:43;101743.19;;;-0.79;100.00
53619;BME280;39505;53.040;18.488;2023-03-03T00:28:56;101743.16;;;-0.78;100.00
53619;BME280;39505;53.040;18.488;2023-03-03T00:29:28;101745.78;;;-0.78;100.00
53619;BME280;39505;53.040;18.488;2023-03-03T00:29:44;101748.41;;;-0.78;100.00
53619;BME280;39505;53.040;18.488;2023-03-03T00:29:59;101743.16;;;-0.78;100.00
53619;BME280;39505;53.040;18.488;2023-03-03T00:30:19;101744.00;;;-0.77;100.00
53619;BME280;39505;53.040;18.488;2023-03-03T00:30:34;101748.41;;;-0.78;100.00
53619;BME280;39505;53.040;18.488;2023-03-03T00:30:47;101744.94;;;-0.78;100.00
53619;BME280;39505;53.040;18.488;2023-03-03T00:31:12;101744.94;;;-0.78;100.00
53619;BME280;39505;53.040;18.488;2023-03-03T00:31:32;101741.41;;;-0.79;100.00
53619;BME280;39505;53.040;18.488;2023-03-03T00:31:45;101744.03;;;-0.79;100.00
53619;BME280;39505;53.040;18.488;2023-03-03T00:32:20;101745.81;;;-0.79;100.00
53619;BME280;39505;53.040;18.488;2023-03-03T00:32:37;101742.34;;;-0.81;100.00
53619;BME280;39505;53.040;18.488;2023-03-03T00:32:54;101741.47;;;-0.80;100.00
53619;BME280;39505;53.040;18.488;2023-03-03T00:33:18;101737.94;;;-0.81;100.00
53619;BME280;39505;53.040;18.488;2023-03-03T00:33:35;101743.19;;;-0.81;100.00
53619;BME280;39505;53.040;18.488;2023-03-03T00:33:52;101741.47;;;-0.82;100.00
53619;BME280;39505;53.040;18.488;2023-03-03T00:34:19;101747.59;;;-0.80;100.00
53619;BME280;39505;53.040;18.488;2023-03-03T00:34:35;101739.59;;;-0.77;100.00
53619;BME280;39505;53.040;18.488;2023-03-03T00:34:49;101746.63;;;-0.76;100.00
53619;BME280;39505;53.040;18.488;2023-03-03T00:35:23;101744.00;;;-0.77;100.00
53619;BME280;39505;53.040;18.488;2023-03-03T00:35:37;101744.84;;;-0.75;100.00
53619;BME280;39505;53.040;18.488;2023-03-03T00:35:50;101734.34;;;-0.77;100.00
53619;BME280;39505;53.040;18.488;2023-03-03T00:36:26;101740.44;;;-0.75;100.00
53619;BME280;39505;53.040;18.488;2023-03-03T00:36:43;101736.94;;;-0.75;100.00
53619;BME280;39505;53.040;18.488;2023-03-03T00:36:56;101729.97;;;-0.76;100.00
53619;BME280;39505;53.040;18.488;2023-03-03T00:37:22;101728.19;;;-0.76;100.00
53619;BME280;39505;53.040;18.488;2023-03-03T00:37:39;101726.41;;;-0.75;100.00
53619;BME280;39505;53.040;18.488;2023-03-03T00:37:54;101736.09;;;-0.76;100.00
53619;BME280;39505;53.040;18.488;2023-03-03T00:38:11;101728.19;;;-0.76;100.00
53619;BME280;39505;53.040;18.488;2023-03-03T00:38:26;101734.31;;;-0.75;100.00
53619;BME280;39505;53.040;18.488;2023-03-03T00:38:39;101730.81;;;-0.76;100.00
53619;BME280;39505;53.040;18.488;2023-03-03T00:38:53;101733.44;;;-0.76;100.00
53619;BME280;39505;53.040;18.488;2023-03-03T00:39:19;101732.59;;;-0.76;100.00
53619;BME280;39505;53.040;18.488;2023-03-03T00:39:35;101730.81;;;-0.76;100.00
53619;BME280;39505;53.040;18.488;2023-03-03T00:39:48;101732.59;;;-0.76;100.00
53619;BME280;39505;53.040;18.488;2023-03-03T00:40:18;101733.47;;;-0.77;100.00
53619;BME280;39505;53.040;18.488;2023-03-03T00:40:35;101731.69;;;-0.77;100.00
53619;BME280;39505;53.040;18.488;2023-03-03T00:40:49;101729.06;;;-0.77;100.00
53619;BME280;39505;53.040;18.488;2023-03-03T00:41:04;101735.22;;;-0.76;100.00
53619;BME280;39505;53.040;18.488;2023-03-03T00:41:24;101724.72;;;-0.78;100.00
53619;BME280;39505;53.040;18.488;2023-03-03T00:41:38;101726.53;;;-0.81;100.00
53619;BME280;39505;53.040;18.488;2023-03-03T00:41:51;101733.47;;;-0.77;100.00
53619;BME280;39505;53.040;18.488;2023-03-03T00:42:10;101732.63;;;-0.78;100.00
53619;BME280;39505;53.040;18.488;2023-03-03T00:42:26;101732.63;;;-0.78;100.00
53619;BME280;39505;53.040;18.488;2023-03-03T00:42:39;101737.88;;;-0.78;100.00
53619;BME280;39505;53.040;18.488;2023-03-03T00:42:54;101737.88;;;-0.78;100.00
53619;BME280;39505;53.040;18.488;2023-03-03T00:43:16;101737.88;;;-0.78;100.00
53619;BME280;39505;53.040;18.488;2023-03-03T00:43:35;101731.69;;;-0.77;100.00
53619;BME280;39505;53.040;18.488;2023-03-03T00:43:48;101734.34;;;-0.77;100.00
53619;BME280;39505;53.040;18.488;2023-03-03T00:44:26;101736.09;;;-0.76;100.00
53619;BME280;39505;53.040;18.488;2023-03-03T00:44:43;101734.31;;;-0.75;100.00
53619;BME280;39505;53.040;18.488;2023-03-03T00:44:58;101734.31;;;-0.75;100.00
53619;BME280;39505;53.040;18.488;2023-03-03T00:45:26;101735.22;;;-0.76;100.00
53619;BME280;39505;53.040;18.488;2023-03-03T00:45:42;101729.06;;;-0.77;100.00
53619;BME280;39505;53.040;18.488;2023-03-03T00:45:57;101733.44;;;-0.76;100.00
53619;BME280;39505;53.040;18.488;2023-03-03T00:46:15;101734.34;;;-0.77;100.00
53619;BME280;39505;53.040;18.488;2023-03-03T00:46:29;101735.25;;;-0.78;100.00
53619;BME280;39505;53.040;18.488;2023-03-03T00:46:43;101733.47;;;-0.77;100.00
53619;BME280;39505;53.040;18.488;2023-03-03T00:46:57;101736.09;;;-0.77;100.00
53619;BME280;39505;53.040;18.488;2023-03-03T00:47:34;101739.59;;;-0.77;100.00
53619;BME280;39505;53.040;18.488;2023-03-03T00:47:49;101732.63;;;-0.78;100.00
53619;BME280;39505;53.040;18.488;2023-03-03T00:48:15;101736.09;;;-0.76;100.00
53619;BME280;39505;53.040;18.488;2023-03-03T00:48:40;101734.28;;;-0.74;100.00
53619;BME280;39505;53.040;18.488;2023-03-03T00:48:54;101733.38;;;-0.74;100.00
53619;BME280;39505;53.040;18.488;2023-03-03T00:49:18;101736.94;;;-0.75;100.00
53619;BME280;39505;53.040;18.488;2023-03-03T00:49:34;101742.22;;;-0.75;100.00
53619;BME280;39505;53.040;18.488;2023-03-03T00:49:48;101734.34;;;-0.77;100.00
53619;BME280;39505;53.040;18.488;2023-03-03T00:50:31;101730.84;;;-0.77;100.00
53619;BME280;39505;53.040;18.488;2023-03-03T00:50:46;101730.84;;;-0.77;100.00
53619;BME280;39505;53.040;18.488;2023-03-03T00:51:00;101728.22;;;-0.77;100.00
53619;BME280;39505;53.040;18.488;2023-03-03T00:51:25;101731.78;;;-0.80;100.00
53619;BME280;39505;53.040;18.488;2023-03-03T00:51:38;101733.50;;;-0.79;100.00
53619;BME280;39505;53.040;18.488;2023-03-03T00:51:51;101732.66;;;-0.79;100.00
53619;BME280;39505;53.040;18.488;2023-03-03T00:52:10;101731.78;;;-0.80;100.00
53619;BME280;39505;53.040;18.488;2023-03-03T00:52:26;101729.16;;;-0.80;100.00
53619;BME280;39505;53.040;18.488;2023-03-03T00:52:44;101727.41;;;-0.81;100.00
53619;BME280;39505;53.040;18.488;2023-03-03T00:53:04;101735.31;;;-0.81;100.00
53619;BME280;39505;53.040;18.488;2023-03-03T00:53:19;101723.88;;;-0.80;100.00
53619;BME280;39505;53.040;18.488;2023-03-03T00:53:31;101727.41;;;-0.81;100.00
53619;BME280;39505;53.040;18.488;2023-03-03T00:53:45;101731.78;;;-0.80;100.00
53619;BME280;39505;53.040;18.488;2023-03-03T00:53:58;101726.53;;;-0.80;100.00
53619;BME280;39505;53.040;18.488;2023-03-03T00:54:11;101726.53;;;-0.80;100.00
53619;BME280;39505;53.040;18.488;2023-03-03T00:54:24;101725.66;;;-0.80;100.00
53619;BME280;39505;53.040;18.488;2023-03-03T00:54:36;101720.41;;;-0.80;100.00
53619;BME280;39505;53.040;18.488;2023-03-03T00:54:49;101730.03;;;-0.81;100.00
53619;BME280;39505;53.040;18.488;2023-03-03T00:55:02;101729.19;;;-0.81;100.00
53619;BME280;39505;53.040;18.488;2023-03-03T00:55:15;101723.91;;;-0.81;100.00
53619;BME280;39505;53.040;18.488;2023-03-03T00:55:29;101722.13;;;-0.81;100.00
53619;BME280;39505;53.040;18.488;2023-03-03T00:55:44;101723.06;;;-0.82;100.00
53619;BME280;39505;53.040;18.488;2023-03-03T00:55:58;101727.34;;;-0.78;100.00
53619;BME280;39505;53.040;18.488;2023-03-03T00:56:10;101722.94;;;-0.77;100.00
53619;BME280;39505;53.040;18.488;2023-03-03T00:56:23;101729.06;;;-0.77;100.00
53619;BME280;39505;53.040;18.488;2023-03-03T00:56:37;101721.16;;;-0.77;100.00
53619;BME280;39505;53.040;18.488;2023-03-03T00:56:50;101726.50;;;-0.78;100.00
53619;BME280;39505;53.040;18.488;2023-03-03T00:57:03;101728.22;;;-0.77;100.00
53619;BME280;39505;53.040;18.488;2023-03-03T00:57:15;101724.72;;;-0.78;100.00
53619;BME280;39505;53.040;18.488;2023-03-03T00:57:28;101726.50;;;-0.78;100.00
53619;BME280;39505;53.040;18.488;2023-03-03T00:57:41;101723.81;;;-0.77;100.00
53619;BME280;39505;53.040;18.488;2023-03-03T00:57:53;101715.03;;;-0.77;100.00
53619;BME280;39505;53.040;18.488;2023-03-03T00:58:06;101723.81;;;-0.77;100.00
53619;BME280;39505;53.040;18.488;2023-03-03T00:58:20;101723.81;;;-0.77;100.00
53619;BME280;39505;53.040;18.488;2023-03-03T00:58:34;101711.56;;;-0.78;100.00
53619;BME280;39505;53.040;18.488;2023-03-03T00:58:47;101721.16;;;-0.77;100.00
53619;BME280;39505;53.040;18.488;2023-03-03T00:58:59;101715.03;;;-0.77;100.00
53619;BME280;39505;53.040;18.488;2023-03-03T00:59:12;101720.31;;;-0.77;100.00
53619;BME280;39505;53.040;18.488;2023-03-03T00:59:25;101716.81;;;-0.78;100.00
53619;BME280;39505;53.040;18.488;2023-03-03T00:59:37;101718.53;;;-0.77;100.00
53619;BME280;39505;53.040;18.488;2023-03-03T00:59:50;101713.28;;;-0.77;100.00
53619;BME280;39505;53.040;18.488;2023-03-03T01:00:03;101718.53;;;-0.77;100.00
53619;BME280;39505;53.040;18.488;2023-03-03T01:00:17;101713.28;;;-0.77;100.00
53619;BME280;39505;53.040;18.488;2023-03-03T01:00:30;101712.41;;;-0.77;100.00
53619;BME280;39505;53.040;18.488;2023-03-03T01:00:46;101715.91;;;-0.77;100.00
53619;BME280;39505;53.040;18.488;2023-03-03T01:00:58;101721.16;;;-0.77;100.00
53619;BME280;39505;53.040;18.488;2023-03-03T01:01:11;101709.75;;;-0.76;100.00
53619;BME280;39505;53.040;18.488;2023-03-03T01:01:24;101714.19;;;-0.78;100.00
53619;BME280;39505;53.040;18.488;2023-03-03T01:01:37;101715.00;;;-0.76;100.00
53619;BME280;39505;53.040;18.488;2023-03-03T01:01:50;101715.00;;;-0.76;100.00
53619;BME280;39505;53.040;18.488;2023-03-03T01:02:04;101711.47;;;-0.75;100.00
53619;BME280;39505;53.040;18.488;2023-03-03T01:02:16;101721.13;;;-0.75;100.00
53619;BME280;39505;53.040;18.488;2023-03-03T01:02:29;101715.88;;;-0.75;100.00
53619;BME280;39505;53.040;18.488;2023-03-03T01:02:42;101717.66;;;-0.76;100.00
53619;BME280;39505;53.040;18.488;2023-03-03T01:02:59;101723.78;;;-0.75;100.00
53619;BME280;39505;53.040;18.488;2023-03-03T01:03:15;101726.41;;;-0.75;100.00
53619;BME280;39505;53.040;18.488;2023-03-03T01:03:29;101724.63;;;-0.75;100.00
53619;BME280;39505;53.040;18.488;2023-03-03T01:03:41;101719.38;;;-0.75;100.00
53619;BME280;39505;53.040;18.488;2023-03-03T01:03:54;101725.56;;;-0.76;100.00
53619;BME280;39505;53.040;18.488;2023-03-03T01:04:07;101726.38;;;-0.74;100.00
53619;BME280;39505;53.040;18.488;2023-03-03T01:04:20;101723.75;;;-0.74;100.00
53619;BME280;39505;53.040;18.488;2023-03-03T01:04:33;101723.75;;;-0.74;100.00
53619;BME280;39505;53.040;18.488;2023-03-03T01:04:49;101722.81;;;-0.73;100.00
53619;BME280;39505;53.040;18.488;2023-03-03T01:05:04;101728.09;;;-0.73;100.00
53619;BME280;39505;53.040;18.488;2023-03-03T01:05:17;101723.75;;;-0.74;100.00
53619;BME280;39505;53.040;18.488;2023-03-03T01:05:30;101715.88;;;-0.75;100.00
53619;BME280;39505;53.040;18.488;2023-03-03T01:05:43;101719.38;;;-0.75;100.00
53619;BME280;39505;53.040;18.488;2023-03-03T01:05:56;101724.59;;;-0.73;100.00
53619;BME280;39505;53.040;18.488;2023-03-03T01:06:09;101723.78;;;-0.75;100.00
53619;BME280;39505;53.040;18.488;2023-03-03T01:06:25;101718.47;;;-0.74;100.00
53619;BME280;39505;53.040;18.488;2023-03-03T01:06:38;101726.38;;;-0.74;100.00
53619;BME280;39505;53.040;18.488;2023-03-03T01:06:50;101722.84;;;-0.74;100.00
53619;BME280;39505;53.040;18.488;2023-03-03T01:07:03;101718.47;;;-0.74;100.00
53619;BME280;39505;53.040;18.488;2023-03-03T01:07:16;101722.84;;;-0.74;100.00
53619;BME280;39505;53.040;18.488;2023-03-03T01:07:29;101722.84;;;-0.74;100.00
53619;BME280;39505;53.040;18.488;2023-03-03T01:07:41;101722.91;;;-0.76;100.00
53619;BME280;39505;53.040;18.488;2023-03-03T01:07:54;101723.78;;;-0.75;100.00
53619;BME280;39505;53.040;18.488;2023-03-03T01:08:07;101721.03;;;-0.71;100.00
53619;BME280;39505;53.040;18.488;2023-03-03T01:08:22;101728.94;;;-0.71;100.00
53619;BME280;39505;53.040;18.488;2023-03-03T01:08:35;101724.50;;;-0.70;100.00
53619;BME280;39505;53.040;18.488;2023-03-03T01:08:47;101721.03;;;-0.71;100.00
53619;BME280;39505;53.040;18.488;2023-03-03T01:09:00;101724.56;;;-0.72;100.00
53619;BME280;39505;53.040;18.488;2023-03-03T01:09:13;101721.94;;;-0.72;100.00
53619;BME280;39505;53.040;18.488;2023-03-03T01:09:25;101721.94;;;-0.72;100.00
53619;BME280;39505;53.040;18.488;2023-03-03T01:09:38;101721.94;;;-0.72;100.00
53619;BME280;39505;53.040;18.488;2023-03-03T01:09:52;101719.34;;;-0.73;100.00
53619;BME280;39505;53.040;18.488;2023-03-03T01:10:05;101722.81;;;-0.73;100.00
53619;BME280;39505;53.040;18.488;2023-03-03T01:10:18;101730.72;;;-0.73;100.00
53619;BME280;39505;53.040;18.488;2023-03-03T01:10:33;101725.47;;;-0.73;100.00
53619;BME280;39505;53.040;18.488;2023-03-03T01:10:49;101724.69;;;-0.76;100.00
53619;BME280;39505;53.040;18.488;2023-03-03T01:11:04;101727.25;;;-0.75;100.00
53619;BME280;39505;53.040;18.488;2023-03-03T01:11:22;101726.41;;;-0.75;100.00
53619;BME280;39505;53.040;18.488;2023-03-03T01:11:35;101718.53;;;-0.77;100.00
53619;BME280;39505;53.040;18.488;2023-03-03T01:11:49;101722.00;;;-0.75;100.00
53619;BME280;39505;53.040;18.488;2023-03-03T01:12:03;101721.13;;;-0.74;100.00
53619;BME280;39505;53.040;18.488;2023-03-03T01:12:15;101720.19;;;-0.73;100.00
53619;BME280;39505;53.040;18.488;2023-03-03T01:12:28;101721.06;;;-0.72;100.00
53619;BME280;39505;53.040;18.488;2023-03-03T01:12:41;101721.13;;;-0.74;100.00
53619;BME280;39505;53.040;18.488;2023-03-03T01:12:54;101718.47;;;-0.74;100.00
53619;BME280;39505;53.040;18.488;2023-03-03T01:13:09;101717.59;;;-0.74;100.00
53619;BME280;39505;53.040;18.488;2023-03-03T01:13:25;101719.34;;;-0.73;100.00
53619;BME280;39505;53.040;18.488;2023-03-03T01:13:41;101718.47;;;-0.74;100.00
53619;BME280;39505;53.040;18.488;2023-03-03T01:13:55;101715.78;;;-0.72;100.00
53619;BME280;39505;53.040;18.488;2023-03-03T01:14:08;101713.22;;;-0.74;100.00
53619;BME280;39505;53.040;18.488;2023-03-03T01:14:22;101718.47;;;-0.74;100.00
53619;BME280;39505;53.040;18.488;2023-03-03T01:14:35;101718.50;;;-0.75;100.00
53619;BME280;39505;53.040;18.488;2023-03-03T01:14:47;101721.13;;;-0.75;100.00
53619;BME280;39505;53.040;18.488;2023-03-03T01:15:01;101720.28;;;-0.76;100.00
53619;BME280;39505;53.040;18.488;2023-03-03T01:15:14;101722.00;;;-0.75;100.00
53619;BME280;39505;53.040;18.488;2023-03-03T01:15:27;101725.56;;;-0.76;100.00
53619;BME280;39505;53.040;18.488;2023-03-03T01:15:40;101724.69;;;-0.76;100.00
53619;BME280;39505;53.040;18.488;2023-03-03T01:15:54;101722.09;;;-0.78;100.00
53619;BME280;39505;53.040;18.488;2023-03-03T01:16:07;101722.00;;;-0.75;100.00
53619;BME280;39505;53.040;18.488;2023-03-03T01:16:20;101726.38;;;-0.74;100.00
53619;BME280;39505;53.040;18.488;2023-03-03T01:16:33;101726.41;;;-0.75;100.00
53619;BME280;39505;53.040;18.488;2023-03-03T01:16:46;101729.91;;;-0.75;100.00
53619;BME280;39505;53.040;18.488;2023-03-03T01:16:58;101736.94;;;-0.75;100.00
53619;BME280;39505;53.040;18.488;2023-03-03T01:17:11;101731.66;;;-0.75;100.00
53619;BME280;39505;53.040;18.488;2023-03-03T01:17:25;101730.81;;;-0.76;100.00
53619;BME280;39505;53.040;18.488;2023-03-03T01:17:38;101721.31;;;-0.83;100.00
53619;BME280;39505;53.040;18.488;2023-03-03T01:17:51;101736.09;;;-0.76;100.00
53619;BME280;39505;53.040;18.488;2023-03-03T01:18:04;101736.09;;;-0.76;100.00
53619;BME280;39505;53.040;18.488;2023-03-03T01:18:17;101733.44;;;-0.76;100.00
53619;BME280;39505;53.040;18.488;2023-03-03T01:18:30;101725.56;;;-0.76;100.00
53619;BME280;39505;53.040;18.488;2023-03-03T01:18:43;101736.09;;;-0.76;100.00
53619;BME280;39505;53.040;18.488;2023-03-03T01:18:56;101738.72;;;-0.76;100.00
53619;BME280;39505;53.040;18.488;2023-03-03T01:19:09;101730.81;;;-0.76;100.00
53619;BME280;39505;53.040;18.488;2023-03-03T01:19:22;101734.31;;;-0.75;100.00
53619;BME280;39505;53.040;18.488;2023-03-03T01:19:34;101737.78;;;-0.75;100.00
53619;BME280;39505;53.040;18.488;2023-03-03T01:19:47;101743.06;;;-0.75;100.00
53619;BME280;39505;53.040;18.488;2023-03-03T01:20:00;101736.94;;;-0.75;100.00
53619;BME280;39505;53.040;18.488;2023-03-03T01:20:14;101739.56;;;-0.75;100.00
53619;BME280;39505;53.040;18.488;2023-03-03T01:20:28;101739.53;;;-0.74;100.00